sensor_id;sensor_type;location;lat;lon;timestamp;temperature;humidity
45619;DHT22;31343;47.520;19.144;2024-01-15T00:00:00;-1.00;99.90
45619;DHT22;31343;47.520;19.144;2024-01-15T00:02:26;-1.10;99.90
45619;DHT22;31343;47.520;19.144;2024-01-15T00:04:52;-1.00;99.90
45619;DHT22;31343;47.520;19.144;2024-01-15T00:07:18;-1.10;99.90
45619;DHT22;31343;47.520;19.144;2024-01-15T00:09:43;-1.00;99.90
45619;DHT22;31343;47.520;19.144;2024-01-15T00:12:09;-1.10;99.90
45619;DHT22;31343;47.520;19.144;2024-01-15T00:14:34;-1.10;99.90
45619;DHT22;31343;47.520;19.144;2024-01-15T00:17:00;-1.00;99.90
45619;DHT22;31343;47.520;19.144;2024-01-15T00:19:26;-1.00;99.90
45619;DHT22;31343;47.520;19.144;2024-01-15T00:21:52;-1.10;99.90
45619;DHT22;31343;47.520;19.144;2024-01-15T00:24:18;-1.10;99.90
45619;DHT22;31343;47.520;19.144;2024-01-15T00:26:44;-1.10;99.90
45619;DHT22;31343;47.520;19.144;2024-01-15T00:29:10;-1.00;99.90
45619;DHT22;31343;47.520;19.144;2024-01-15T00:31:36;-1.10;99.90
45619;DHT22;31343;47.520;19.144;2024-01-15T00:34:02;-1.00;99.90
45619;DHT22;31343;47.520;19.144;2024-01-15T00:36:27;-1.00;99.90
45619;DHT22;31343;47.520;19.144;2024-01-15T00:38:54;-0.90;99.90
45619;DHT22;31343;47.520;19.144;2024-01-15T00:41:19;-0.90;99.90
45619;DHT22;31343;47.520;19.144;2024-01-15T00:43:46;-0.90;99.90
45619;DHT22;31343;47.520;19.144;2024-01-15T00:46:12;-0.80;99.90
45619;DHT22;31343;47.520;19.144;2024-01-15T00:48:37;-0.80;99.90
45619;DHT22;31343;47.520;19.144;2024-01-15T00:51:06;-0.80;99.90
45619;DHT22;31343;47.520;19.144;2024-01-15T00:53:32;-0.80;99.90
45619;DHT22;31343;47.520;19.144;2024-01-15T00:55:57;-0.80;99.90
45619;DHT22;31343;47.520;19.144;2024-01-15T00:58:23;-0.70;99.90
45619;DHT22;31343;47.520;19.144;2024-01-15T01:00:49;-0.70;99.90
45619;DHT22;31343;47.520;19.144;2024-01-15T01:03:15;-0.80;99.90
45619;DHT22;31343;47.520;19.144;2024-01-15T01:05:41;-0.80;99.90
45619;DHT22;31343;47.520;19.144;2024-01-15T01:08:07;-0.80;99.90
45619;DHT22;31343;47.520;19.144;2024-01-15T01:10:32;-0.90;99.90
45619;DHT22;31343;47.520;19.144;2024-01-15T01:12:58;-0.80;99.90
45619;DHT22;31343;47.520;19.144;2024-01-15T01:15:24;-0.70;99.90
45619;DHT22;31343;47.520;19.144;2024-01-15T01:17:50;-0.70;99.90
45619;DHT22;31343;47.520;19.144;2024-01-15T01:20:15;-0.70;99.90
45619;DHT22;31343;47.520;19.144;2024-01-15T01:22:41;-0.60;99.90
45619;DHT22;31343;47.520;19.144;2024-01-15T01:25:07;-0.60;99.90
45619;DHT22;31343;47.520;19.144;2024-01-15T01:27:33;-0.70;99.90
45619;DHT22;31343;47.520;19.144;2024-01-15T01:29:59;-0.60;99.90
45619;DHT22;31343;47.520;19.144;2024-01-15T01:32:25;-0.60;99.90
45619;DHT22;31343;47.520;19.144;2024-01-15T01:34:50;-0.60;99.90
45619;DHT22;31343;47.520;19.144;2024-01-15T01:37:16;-0.50;99.90
45619;DHT22;31343;47.520;19.144;2024-01-15T01:39:43;-0.40;99.90
45619;DHT22;31343;47.520;19.144;2024-01-15T01:42:09;-0.40;99.90
45619;DHT22;31343;47.520;19.144;2024-01-15T01:44:35;-0.40;99.90
45619;DHT22;31343;47.520;19.144;2024-01-15T01:47:01;-0.30;99.90
45619;DHT22;31343;47.520;19.144;2024-01-15T01:49:27;-0.40;99.90
45619;DHT22;31343;47.520;19.144;2024-01-15T01:51:55;-0.40;99.90
45619;DHT22;31343;47.520;19.144;2024-01-15T01:54:22;-0.40;99.90
45619;DHT22;31343;47.520;19.144;2024-01-15T01:56:48;-0.40;99.90
45619;DHT22;31343;47.520;19.144;2024-01-15T01:59:15;-0.60;99.90
45619;DHT22;31343;47.520;19.144;2024-01-15T02:01:41;-0.50;99.90
45619;DHT22;31343;47.520;19.144;2024-01-15T02:04:07;-0.50;99.90
45619;DHT22;31343;47.520;19.144;2024-01-15T02:06:34;-0.50;99.90
45619;DHT22;31343;47.520;19.144;2024-01-15T02:08:59;-0.70;99.90
45619;DHT22;31343;47.520;19.144;2024-01-15T02:11:27;-0.70;99.90
45619;DHT22;31343;47.520;19.144;2024-01-15T02:13:53;-0.70;99.90
45619;DHT22;31343;47.520;19.144;2024-01-15T02:16:18;-0.70;99.90
45619;DHT22;31343;47.520;19.144;2024-01-15T02:18:45;-0.80;99.90
45619;DHT22;31343;47.520;19.144;2024-01-15T02:21:11;-0.80;99.90
45619;DHT22;31343;47.520;19.144;2024-01-15T02:23:37;-0.80;99.90
45619;DHT22;31343;47.520;19.144;2024-01-15T02:26:04;-0.80;99.90
45619;DHT22;31343;47.520;19.144;2024-01-15T02:28:30;-0.80;99.90
45619;DHT22;31343;47.520;19.144;2024-01-15T02:30:57;-0.90;99.90
45619;DHT22;31343;47.520;19.144;2024-01-15T02:33:23;-0.80;99.90
45619;DHT22;31343;47.520;19.144;2024-01-15T02:35:49;-0.80;99.90
45619;DHT22;31343;47.520;19.144;2024-01-15T02:38:17;-0.80;99.90
45619;DHT22;31343;47.520;19.144;2024-01-15T02:40:45;-0.90;99.90
45619;DHT22;31343;47.520;19.144;2024-01-15T02:43:11;-1.00;99.90
45619;DHT22;31343;47.520;19.144;2024-01-15T02:45:38;-1.00;99.90
45619;DHT22;31343;47.520;19.144;2024-01-15T02:48:04;-1.00;99.90
45619;DHT22;31343;47.520;19.144;2024-01-15T02:50:30;-1.00;99.90
45619;DHT22;31343;47.520;19.144;2024-01-15T02:52:55;-1.10;99.90
45619;DHT22;31343;47.520;19.144;2024-01-15T02:55:21;-1.10;99.90
45619;DHT22;31343;47.520;19.144;2024-01-15T02:57:47;-1.10;99.90
45619;DHT22;31343;47.520;19.144;2024-01-15T03:00:13;-1.20;99.90
45619;DHT22;31343;47.520;19.144;2024-01-15T03:02:39;-1.20;99.90
45619;DHT22;31343;47.520;19.144;2024-01-15T03:05:08;-1.20;99.90
45619;DHT22;31343;47.520;19.144;2024-01-15T03:07:34;-1.30;99.90
45619;DHT22;31343;47.520;19.144;2024-01-15T03:10:00;-1.20;99.90
45619;DHT22;31343;47.520;19.144;2024-01-15T03:12:26;-1.20;99.90
45619;DHT22;31343;47.520;19.144;2024-01-15T03:14:51;-1.20;99.90
45619;DHT22;31343;47.520;19.144;2024-01-15T03:17:17;-1.40;99.90
45619;DHT22;31343;47.520;19.144;2024-01-15T03:19:43;-1.50;99.90
45619;DHT22;31343;47.520;19.144;2024-01-15T03:22:08;-1.50;99.90
45619;DHT22;31343;47.520;19.144;2024-01-15T03:24:34;-1.50;99.90
45619;DHT22;31343;47.520;19.144;2024-01-15T03:27:01;-1.50;99.90
45619;DHT22;31343;47.520;19.144;2024-01-15T03:29:27;-1.60;99.90
45619;DHT22;31343;47.520;19.144;2024-01-15T03:31:53;-1.50;99.90
45619;DHT22;31343;47.520;19.144;2024-01-15T03:34:19;-1.60;99.90
45619;DHT22;31343;47.520;19.144;2024-01-15T03:36:45;-1.60;99.90
45619;DHT22;31343;47.520;19.144;2024-01-15T03:39:10;-1.50;99.90
45619;DHT22;31343;47.520;19.144;2024-01-15T03:41:36;-1.50;99.90
45619;DHT22;31343;47.520;19.144;2024-01-15T03:44:02;-1.60;99.90
45619;DHT22;31343;47.520;19.144;2024-01-15T03:46:28;-1.50;99.90
45619;DHT22;31343;47.520;19.144;2024-01-15T03:48:53;-1.50;99.90
45619;DHT22;31343;47.520;19.144;2024-01-15T03:51:19;-1.50;99.90
45619;DHT22;31343;47.520;19.144;2024-01-15T03:53:46;-1.50;99.90
45619;DHT22;31343;47.520;19.144;2024-01-15T03:56:11;-1.40;99.90
45619;DHT22;31343;47.520;19.144;2024-01-15T03:58:37;-1.40;99.90
45619;DHT22;31343;47.520;19.144;2024-01-15T04:01:03;-1.50;99.90
45619;DHT22;31343;47.520;19.144;2024-01-15T04:03:29;-1.60;99.90
45619;DHT22;31343;47.520;19.144;2024-01-15T04:05:55;-1.60;99.90
45619;DHT22;31343;47.520;19.144;2024-01-15T04:08:20;-1.70;99.90
45619;DHT22;31343;47.520;19.144;2024-01-15T04:10:46;-1.70;99.90
45619;DHT22;31343;47.520;19.144;2024-01-15T04:13:12;-1.70;99.90
45619;DHT22;31343;47.520;19.144;2024-01-15T04:15:38;-1.70;99.90
45619;DHT22;31343;47.520;19.144;2024-01-15T04:18:04;-1.70;99.90
45619;DHT22;31343;47.520;19.144;2024-01-15T04:20:30;-1.70;99.90
45619;DHT22;31343;47.520;19.144;2024-01-15T04:22:55;-1.70;99.90
45619;DHT22;31343;47.520;19.144;2024-01-15T04:25:21;-1.60;99.90
45619;DHT22;31343;47.520;19.144;2024-01-15T04:27:47;-1.70;99.90
45619;DHT22;31343;47.520;19.144;2024-01-15T04:30:12;-1.80;99.90
45619;DHT22;31343;47.520;19.144;2024-01-15T04:32:38;-1.70;99.90
45619;DHT22;31343;47.520;19.144;2024-01-15T04:35:04;-1.90;99.90
45619;DHT22;31343;47.520;19.144;2024-01-15T04:37:30;-1.80;99.90
45619;DHT22;31343;47.520;19.144;2024-01-15T04:39:55;-1.90;99.90
45619;DHT22;31343;47.520;19.144;2024-01-15T04:42:23;-1.90;99.90
45619;DHT22;31343;47.520;19.144;2024-01-15T04:44:49;-1.80;99.90
45619;DHT22;31343;47.520;19.144;2024-01-15T04:47:14;-1.80;99.90
45619;DHT22;31343;47.520;19.144;2024-01-15T04:49:40;-1.90;99.90
45619;DHT22;31343;47.520;19.144;2024-01-15T04:52:06;-1.90;99.90
45619;DHT22;31343;47.520;19.144;2024-01-15T04:54:31;-1.90;99.90
45619;DHT22;31343;47.520;19.144;2024-01-15T04:56:58;-1.80;99.90
45619;DHT22;31343;47.520;19.144;2024-01-15T04:59:23;-1.90;99.90
45619;DHT22;31343;47.520;19.144;2024-01-15T05:01:49;-1.80;99.90
45619;DHT22;31343;47.520;19.144;2024-01-15T05:04:15;-1.80;99.90
45619;DHT22;31343;47.520;19.144;2024-01-15T05:06:40;-1.90;99.90
45619;DHT22;31343;47.520;19.144;2024-01-15T05:09:06;-1.90;99.90
45619;DHT22;31343;47.520;19.144;2024-01-15T05:11:32;-1.80;99.90
45619;DHT22;31343;47.520;19.144;2024-01-15T05:13:58;-1.70;99.90
45619;DHT22;31343;47.520;19.144;2024-01-15T05:16:24;-1.80;99.90
45619;DHT22;31343;47.520;19.144;2024-01-15T05:18:49;-2.10;99.90
45619;DHT22;31343;47.520;19.144;2024-01-15T05:21:15;-2.00;99.90
45619;DHT22;31343;47.520;19.144;2024-01-15T05:23:41;-2.00;99.90
45619;DHT22;31343;47.520;19.144;2024-01-15T05:26:07;-2.00;99.90
45619;DHT22;31343;47.520;19.144;2024-01-15T05:28:34;-2.00;99.90
45619;DHT22;31343;47.520;19.144;2024-01-15T05:31:01;-2.00;99.90
45619;DHT22;31343;47.520;19.144;2024-01-15T05:33:26;-2.00;99.90
45619;DHT22;31343;47.520;19.144;2024-01-15T05:35:52;-1.90;99.90
45619;DHT22;31343;47.520;19.144;2024-01-15T05:38:19;-2.00;99.90
45619;DHT22;31343;47.520;19.144;2024-01-15T05:40:45;-2.10;99.90
45619;DHT22;31343;47.520;19.144;2024-01-15T05:43:10;-2.10;99.90
45619;DHT22;31343;47.520;19.144;2024-01-15T05:45:38;-2.10;99.90
45619;DHT22;31343;47.520;19.144;2024-01-15T05:48:04;-2.10;99.90
45619;DHT22;31343;47.520;19.144;2024-01-15T05:50:30;-2.10;99.90
45619;DHT22;31343;47.520;19.144;2024-01-15T05:52:55;-2.20;99.90
45619;DHT22;31343;47.520;19.144;2024-01-15T05:55:21;-2.20;99.90
45619;DHT22;31343;47.520;19.144;2024-01-15T05:57:47;-2.20;99.90
45619;DHT22;31343;47.520;19.144;2024-01-15T06:00:12;-2.10;99.90
45619;DHT22;31343;47.520;19.144;2024-01-15T06:02:38;-2.20;99.90
45619;DHT22;31343;47.520;19.144;2024-01-15T06:05:05;-2.30;99.90
45619;DHT22;31343;47.520;19.144;2024-01-15T06:07:33;-2.30;99.90
45619;DHT22;31343;47.520;19.144;2024-01-15T06:09:59;-2.30;99.90
45619;DHT22;31343;47.520;19.144;2024-01-15T06:12:25;-2.40;99.90
45619;DHT22;31343;47.520;19.144;2024-01-15T06:14:50;-2.40;99.90
45619;DHT22;31343;47.520;19.144;2024-01-15T06:17:16;-2.50;99.90
45619;DHT22;31343;47.520;19.144;2024-01-15T06:19:42;-2.40;99.90
45619;DHT22;31343;47.520;19.144;2024-01-15T06:22:07;-2.40;99.90
45619;DHT22;31343;47.520;19.144;2024-01-15T06:24:33;-2.40;99.90
45619;DHT22;31343;47.520;19.144;2024-01-15T06:26:59;-2.40;99.90
45619;DHT22;31343;47.520;19.144;2024-01-15T06:29:26;-2.40;99.90
45619;DHT22;31343;47.520;19.144;2024-01-15T06:31:52;-2.40;99.90
45619;DHT22;31343;47.520;19.144;2024-01-15T06:34:18;-2.50;99.90
45619;DHT22;31343;47.520;19.144;2024-01-15T06:36:44;-2.40;99.90
45619;DHT22;31343;47.520;19.144;2024-01-15T06:39:10;-2.30;99.90
45619;DHT22;31343;47.520;19.144;2024-01-15T06:41:36;-2.30;99.90
45619;DHT22;31343;47.520;19.144;2024-01-15T06:44:11;-2.30;99.90
45619;DHT22;31343;47.520;19.144;2024-01-15T06:46:45;-2.20;99.90
45619;DHT22;31343;47.520;19.144;2024-01-15T06:49:12;-2.10;99.90
45619;DHT22;31343;47.520;19.144;2024-01-15T06:51:38;-2.00;99.90
45619;DHT22;31343;47.520;19.144;2024-01-15T06:54:05;-1.90;99.90
45619;DHT22;31343;47.520;19.144;2024-01-15T06:56:31;-1.80;99.90
45619;DHT22;31343;47.520;19.144;2024-01-15T06:58:57;-1.70;99.90
45619;DHT22;31343;47.520;19.144;2024-01-15T07:01:23;-1.60;99.90
45619;DHT22;31343;47.520;19.144;2024-01-15T07:03:49;-1.50;99.90
45619;DHT22;31343;47.520;19.144;2024-01-15T07:06:14;-1.30;99.90
45619;DHT22;31343;47.520;19.144;2024-01-15T07:08:41;-1.20;99.90
45619;DHT22;31343;47.520;19.144;2024-01-15T07:11:07;-1.10;99.90
45619;DHT22;31343;47.520;19.144;2024-01-15T07:13:33;-1.00;99.90
45619;DHT22;31343;47.520;19.144;2024-01-15T07:15:59;-1.00;99.90
45619;DHT22;31343;47.520;19.144;2024-01-15T07:18:25;-0.90;99.90
45619;DHT22;31343;47.520;19.144;2024-01-15T07:20:51;-1.10;99.90
45619;DHT22;31343;47.520;19.144;2024-01-15T07:23:17;-1.10;99.90
45619;DHT22;31343;47.520;19.144;2024-01-15T07:25:44;-1.10;99.90
45619;DHT22;31343;47.520;19.144;2024-01-15T07:28:09;-1.10;99.90
45619;DHT22;31343;47.520;19.144;2024-01-15T07:30:35;-1.20;99.90
45619;DHT22;31343;47.520;19.144;2024-01-15T07:33:04;-1.20;99.90
45619;DHT22;31343;47.520;19.144;2024-01-15T07:35:29;-1.40;99.90
45619;DHT22;31343;47.520;19.144;2024-01-15T07:37:55;-1.40;99.90
45619;DHT22;31343;47.520;19.144;2024-01-15T07:40:21;-1.50;99.90
45619;DHT22;31343;47.520;19.144;2024-01-15T07:42:47;-1.60;99.90
45619;DHT22;31343;47.520;19.144;2024-01-15T07:45:13;-1.60;99.90
45619;DHT22;31343;47.520;19.144;2024-01-15T07:47:38;-1.50;99.90
45619;DHT22;31343;47.520;19.144;2024-01-15T07:50:04;-1.40;99.90
45619;DHT22;31343;47.520;19.144;2024-01-15T07:52:30;-1.30;99.90
45619;DHT22;31343;47.520;19.144;2024-01-15T07:54:56;-1.10;99.90
45619;DHT22;31343;47.520;19.144;2024-01-15T07:57:24;-1.10;99.90
45619;DHT22;31343;47.520;19.144;2024-01-15T07:59:50;-1.00;99.90
45619;DHT22;31343;47.520;19.144;2024-01-15T08:02:17;-0.90;99.90
45619;DHT22;31343;47.520;19.144;2024-01-15T08:04:42;-0.90;99.90
45619;DHT22;31343;47.520;19.144;2024-01-15T08:07:08;-0.80;99.90
45619;DHT22;31343;47.520;19.144;2024-01-15T08:09:34;-0.80;99.90
45619;DHT22;31343;47.520;19.144;2024-01-15T08:12:00;-0.60;99.90
45619;DHT22;31343;47.520;19.144;2024-01-15T08:14:26;-0.40;99.90
45619;DHT22;31343;47.520;19.144;2024-01-15T08:16:51;-0.30;99.90
45619;DHT22;31343;47.520;19.144;2024-01-15T08:19:17;-0.20;99.90
45619;DHT22;31343;47.520;19.144;2024-01-15T08:21:43;0.00;99.90
45619;DHT22;31343;47.520;19.144;2024-01-15T08:24:09;0.20;99.90
45619;DHT22;31343;47.520;19.144;2024-01-15T08:26:34;0.30;99.90
45619;DHT22;31343;47.520;19.144;2024-01-15T08:29:00;0.30;99.90
45619;DHT22;31343;47.520;19.144;2024-01-15T08:31:26;0.50;99.90
45619;DHT22;31343;47.520;19.144;2024-01-15T08:33:52;0.50;99.90
45619;DHT22;31343;47.520;19.144;2024-01-15T08:36:18;0.60;99.90
45619;DHT22;31343;47.520;19.144;2024-01-15T08:38:44;0.80;99.90
45619;DHT22;31343;47.520;19.144;2024-01-15T08:41:10;1.10;99.90
45619;DHT22;31343;47.520;19.144;2024-01-15T08:43:36;1.40;99.90
45619;DHT22;31343;47.520;19.144;2024-01-15T08:46:03;1.70;99.90
45619;DHT22;31343;47.520;19.144;2024-01-15T08:48:29;2.00;99.90
45619;DHT22;31343;47.520;19.144;2024-01-15T08:50:55;2.20;99.90
45619;DHT22;31343;47.520;19.144;2024-01-15T08:53:21;2.30;99.90
45619;DHT22;31343;47.520;19.144;2024-01-15T08:55:47;2.50;99.90
45619;DHT22;31343;47.520;19.144;2024-01-15T08:58:13;2.30;99.90
45619;DHT22;31343;47.520;19.144;2024-01-15T09:00:39;2.70;99.90
45619;DHT22;31343;47.520;19.144;2024-01-15T09:03:05;2.90;99.90
45619;DHT22;31343;47.520;19.144;2024-01-15T09:05:31;3.10;99.90
45619;DHT22;31343;47.520;19.144;2024-01-15T09:07:56;3.20;99.90
45619;DHT22;31343;47.520;19.144;2024-01-15T09:10:22;3.30;99.90
45619;DHT22;31343;47.520;19.144;2024-01-15T09:12:49;3.20;99.90
45619;DHT22;31343;47.520;19.144;2024-01-15T09:15:15;3.40;99.90
45619;DHT22;31343;47.520;19.144;2024-01-15T09:17:40;3.60;99.90
45619;DHT22;31343;47.520;19.144;2024-01-15T09:20:07;3.70;99.90
45619;DHT22;31343;47.520;19.144;2024-01-15T09:22:33;3.80;99.90
45619;DHT22;31343;47.520;19.144;2024-01-15T09:24:59;3.90;99.90
45619;DHT22;31343;47.520;19.144;2024-01-15T09:27:25;3.90;99.90
45619;DHT22;31343;47.520;19.144;2024-01-15T09:29:54;4.00;99.90
45619;DHT22;31343;47.520;19.144;2024-01-15T09:32:20;4.10;99.90
45619;DHT22;31343;47.520;19.144;2024-01-15T09:34:46;4.20;99.90
45619;DHT22;31343;47.520;19.144;2024-01-15T09:37:13;4.20;99.90
45619;DHT22;31343;47.520;19.144;2024-01-15T09:39:39;4.20;99.90
45619;DHT22;31343;47.520;19.144;2024-01-15T09:42:05;4.30;99.90
45619;DHT22;31343;47.520;19.144;2024-01-15T09:44:31;4.20;99.80
45619;DHT22;31343;47.520;19.144;2024-01-15T09:46:58;4.30;99.50
45619;DHT22;31343;47.520;19.144;2024-01-15T09:49:24;4.40;99.60
45619;DHT22;31343;47.520;19.144;2024-01-15T09:51:50;4.30;99.50
45619;DHT22;31343;47.520;19.144;2024-01-15T09:54:16;4.50;99.00
45619;DHT22;31343;47.520;19.144;2024-01-15T09:56:46;4.60;99.20
45619;DHT22;31343;47.520;19.144;2024-01-15T09:59:18;4.60;99.00
45619;DHT22;31343;47.520;19.144;2024-01-15T10:01:44;4.80;98.60
45619;DHT22;31343;47.520;19.144;2024-01-15T10:04:14;4.80;98.40
45619;DHT22;31343;47.520;19.144;2024-01-15T10:06:44;4.90;98.80
45619;DHT22;31343;47.520;19.144;2024-01-15T10:09:14;4.90;98.10
45619;DHT22;31343;47.520;19.144;2024-01-15T10:11:43;5.00;98.20
45619;DHT22;31343;47.520;19.144;2024-01-15T10:14:10;5.00;97.70
45619;DHT22;31343;47.520;19.144;2024-01-15T10:16:42;5.10;97.90
45619;DHT22;31343;47.520;19.144;2024-01-15T10:19:08;5.00;97.60
45619;DHT22;31343;47.520;19.144;2024-01-15T10:21:35;5.20;97.30
45619;DHT22;31343;47.520;19.144;2024-01-15T10:24:02;5.40;97.30
45619;DHT22;31343;47.520;19.144;2024-01-15T10:26:28;5.50;97.00
45619;DHT22;31343;47.520;19.144;2024-01-15T10:28:54;5.50;97.00
45619;DHT22;31343;47.520;19.144;2024-01-15T10:31:19;5.70;96.00
45619;DHT22;31343;47.520;19.144;2024-01-15T10:33:47;5.70;95.50
45619;DHT22;31343;47.520;19.144;2024-01-15T10:36:14;5.80;95.00
45619;DHT22;31343;47.520;19.144;2024-01-15T10:38:42;6.00;94.90
45619;DHT22;31343;47.520;19.144;2024-01-15T10:41:08;6.10;94.60
45619;DHT22;31343;47.520;19.144;2024-01-15T10:43:34;6.20;94.20
45619;DHT22;31343;47.520;19.144;2024-01-15T10:46:01;6.20;94.20
45619;DHT22;31343;47.520;19.144;2024-01-15T10:48:27;6.40;93.70
45619;DHT22;31343;47.520;19.144;2024-01-15T10:50:57;6.30;93.70
45619;DHT22;31343;47.520;19.144;2024-01-15T10:53:23;6.20;93.60
45619;DHT22;31343;47.520;19.144;2024-01-15T10:55:50;6.20;94.20
45619;DHT22;31343;47.520;19.144;2024-01-15T10:58:17;6.20;94.10
45619;DHT22;31343;47.520;19.144;2024-01-15T11:00:44;6.20;94.00
45619;DHT22;31343;47.520;19.144;2024-01-15T11:03:10;6.30;94.00
45619;DHT22;31343;47.520;19.144;2024-01-15T11:05:41;6.30;94.00
45619;DHT22;31343;47.520;19.144;2024-01-15T11:08:07;6.30;94.00
45619;DHT22;31343;47.520;19.144;2024-01-15T11:10:47;6.30;94.00
45619;DHT22;31343;47.520;19.144;2024-01-15T11:16:02;6.40;93.50
45619;DHT22;31343;47.520;19.144;2024-01-15T11:19:20;6.50;93.90
45619;DHT22;31343;47.520;19.144;2024-01-15T11:21:28;6.80;93.70
45619;DHT22;31343;47.520;19.144;2024-01-15T11:24:00;7.00;93.00
45619;DHT22;31343;47.520;19.144;2024-01-15T11:26:38;7.20;92.90
45619;DHT22;31343;47.520;19.144;2024-01-15T11:29:28;7.40;91.90
45619;DHT22;31343;47.520;19.144;2024-01-15T11:31:57;7.30;91.90
45619;DHT22;31343;47.520;19.144;2024-01-15T11:34:53;7.60;92.10
45619;DHT22;31343;47.520;19.144;2024-01-15T11:37:21;8.10;91.40
45619;DHT22;31343;47.520;19.144;2024-01-15T11:39:47;8.70;90.70
45619;DHT22;31343;47.520;19.144;2024-01-15T11:42:13;9.10;89.30
45619;DHT22;31343;47.520;19.144;2024-01-15T11:44:40;9.50;88.10
45619;DHT22;31343;47.520;19.144;2024-01-15T11:47:09;9.90;86.80
45619;DHT22;31343;47.520;19.144;2024-01-15T11:52:19;10.30;83.90
45619;DHT22;31343;47.520;19.144;2024-01-15T12:00:07;10.10;82.90
45619;DHT22;31343;47.520;19.144;2024-01-15T12:02:34;9.90;81.80
45619;DHT22;31343;47.520;19.144;2024-01-15T12:05:00;9.80;82.60
45619;DHT22;31343;47.520;19.144;2024-01-15T12:07:25;9.50;82.60
45619;DHT22;31343;47.520;19.144;2024-01-15T12:09:51;9.50;82.70
45619;DHT22;31343;47.520;19.144;2024-01-15T12:15:03;9.00;83.40
45619;DHT22;31343;47.520;19.144;2024-01-15T12:17:29;9.00;82.30
45619;DHT22;31343;47.520;19.144;2024-01-15T12:19:55;8.90;82.20
45619;DHT22;31343;47.520;19.144;2024-01-15T12:22:22;8.70;82.60
45619;DHT22;31343;47.520;19.144;2024-01-15T12:24:47;8.60;82.60
45619;DHT22;31343;47.520;19.144;2024-01-15T12:27:13;8.50;83.50
45619;DHT22;31343;47.520;19.144;2024-01-15T12:29:39;8.70;84.10
45619;DHT22;31343;47.520;19.144;2024-01-15T12:32:05;9.20;82.50
45619;DHT22;31343;47.520;19.144;2024-01-15T12:34:31;9.60;81.70
45619;DHT22;31343;47.520;19.144;2024-01-15T12:36:58;10.00;80.60
45619;DHT22;31343;47.520;19.144;2024-01-15T12:39:24;10.20;79.30
45619;DHT22;31343;47.520;19.144;2024-01-15T12:41:51;10.60;78.70
45619;DHT22;31343;47.520;19.144;2024-01-15T12:44:17;11.10;77.30
45619;DHT22;31343;47.520;19.144;2024-01-15T12:46:43;11.30;77.00
45619;DHT22;31343;47.520;19.144;2024-01-15T12:49:08;11.30;76.10
45619;DHT22;31343;47.520;19.144;2024-01-15T12:51:35;11.40;75.90
45619;DHT22;31343;47.520;19.144;2024-01-15T12:54:00;11.40;75.90
45619;DHT22;31343;47.520;19.144;2024-01-15T12:56:26;11.80;75.30
45619;DHT22;31343;47.520;19.144;2024-01-15T12:58:52;12.00;74.70
45619;DHT22;31343;47.520;19.144;2024-01-15T13:01:17;12.20;73.60
45619;DHT22;31343;47.520;19.144;2024-01-15T13:03:43;12.10;73.10
45619;DHT22;31343;47.520;19.144;2024-01-15T13:06:10;12.20;73.30
45619;DHT22;31343;47.520;19.144;2024-01-15T13:08:35;12.00;73.20
45619;DHT22;31343;47.520;19.144;2024-01-15T13:11:01;12.20;72.70
45619;DHT22;31343;47.520;19.144;2024-01-15T13:13:27;12.20;72.80
45619;DHT22;31343;47.520;19.144;2024-01-15T13:15:53;12.40;72.60
45619;DHT22;31343;47.520;19.144;2024-01-15T13:18:18;12.50;71.20
45619;DHT22;31343;47.520;19.144;2024-01-15T13:20:44;11.70;72.80
45619;DHT22;31343;47.520;19.144;2024-01-15T13:23:11;11.80;72.90
45619;DHT22;31343;47.520;19.144;2024-01-15T13:25:37;12.00;72.40
45619;DHT22;31343;47.520;19.144;2024-01-15T13:28:04;11.70;72.20
45619;DHT22;31343;47.520;19.144;2024-01-15T13:30:30;11.40;73.10
45619;DHT22;31343;47.520;19.144;2024-01-15T13:32:56;11.20;74.50
45619;DHT22;31343;47.520;19.144;2024-01-15T13:35:23;11.10;73.80
45619;DHT22;31343;47.520;19.144;2024-01-15T13:37:48;11.00;73.90
45619;DHT22;31343;47.520;19.144;2024-01-15T13:40:14;10.70;74.80
45619;DHT22;31343;47.520;19.144;2024-01-15T13:42:46;10.30;75.30
45619;DHT22;31343;47.520;19.144;2024-01-15T13:45:12;10.10;76.50
45619;DHT22;31343;47.520;19.144;2024-01-15T13:47:40;9.70;77.30
45619;DHT22;31343;47.520;19.144;2024-01-15T13:50:07;9.40;78.20
45619;DHT22;31343;47.520;19.144;2024-01-15T13:52:35;9.30;78.10
45619;DHT22;31343;47.520;19.144;2024-01-15T13:55:00;9.30;78.30
45619;DHT22;31343;47.520;19.144;2024-01-15T13:57:27;9.20;78.30
45619;DHT22;31343;47.520;19.144;2024-01-15T13:59:52;9.20;78.90
45619;DHT22;31343;47.520;19.144;2024-01-15T14:02:18;9.30;78.80
45619;DHT22;31343;47.520;19.144;2024-01-15T14:04:45;9.00;79.10
45619;DHT22;31343;47.520;19.144;2024-01-15T14:07:11;8.70;80.00
45619;DHT22;31343;47.520;19.144;2024-01-15T14:09:37;8.60;80.80
45619;DHT22;31343;47.520;19.144;2024-01-15T14:12:03;8.60;80.90
45619;DHT22;31343;47.520;19.144;2024-01-15T14:14:29;8.60;80.90
45619;DHT22;31343;47.520;19.144;2024-01-15T14:16:55;8.60;81.00
45619;DHT22;31343;47.520;19.144;2024-01-15T14:19:20;8.50;81.30
45619;DHT22;31343;47.520;19.144;2024-01-15T14:21:46;8.70;80.90
45619;DHT22;31343;47.520;19.144;2024-01-15T14:24:12;8.50;81.10
45619;DHT22;31343;47.520;19.144;2024-01-15T14:26:37;8.60;81.10
45619;DHT22;31343;47.520;19.144;2024-01-15T14:29:03;8.50;81.50
45619;DHT22;31343;47.520;19.144;2024-01-15T14:31:29;8.20;82.50
45619;DHT22;31343;47.520;19.144;2024-01-15T14:33:54;7.90;83.30
45619;DHT22;31343;47.520;19.144;2024-01-15T14:36:24;7.60;84.00
45619;DHT22;31343;47.520;19.144;2024-01-15T14:38:49;7.30;85.40
45619;DHT22;31343;47.520;19.144;2024-01-15T14:41:15;7.10;86.20
45619;DHT22;31343;47.520;19.144;2024-01-15T14:43:42;6.70;87.50
45619;DHT22;31343;47.520;19.144;2024-01-15T14:46:09;6.50;88.50
45619;DHT22;31343;47.520;19.144;2024-01-15T14:48:35;6.30;90.10
45619;DHT22;31343;47.520;19.144;2024-01-15T14:51:01;6.20;90.20
45619;DHT22;31343;47.520;19.144;2024-01-15T14:53:28;6.10;90.80
45619;DHT22;31343;47.520;19.144;2024-01-15T14:55:54;6.00;90.90
45619;DHT22;31343;47.520;19.144;2024-01-15T14:58:20;6.00;91.30
45619;DHT22;31343;47.520;19.144;2024-01-15T15:00:45;5.90;91.30
45619;DHT22;31343;47.520;19.144;2024-01-15T15:03:11;5.90;91.50
45619;DHT22;31343;47.520;19.144;2024-01-15T15:05:39;5.80;91.80
45619;DHT22;31343;47.520;19.144;2024-01-15T15:08:05;5.60;92.20
45619;DHT22;31343;47.520;19.144;2024-01-15T15:10:35;5.60;92.60
45619;DHT22;31343;47.520;19.144;2024-01-15T15:13:01;5.50;92.60
45619;DHT22;31343;47.520;19.144;2024-01-15T15:15:27;5.40;92.70
45619;DHT22;31343;47.520;19.144;2024-01-15T15:17:53;5.50;92.80
45619;DHT22;31343;47.520;19.144;2024-01-15T15:20:18;5.40;93.00
45619;DHT22;31343;47.520;19.144;2024-01-15T15:22:44;5.30;93.30
45619;DHT22;31343;47.520;19.144;2024-01-15T15:25:10;5.30;93.30
45619;DHT22;31343;47.520;19.144;2024-01-15T15:27:37;5.10;94.10
45619;DHT22;31343;47.520;19.144;2024-01-15T15:30:04;5.10;94.00